Dew Point Data


Current

Temp 73.0 F. Dew Point 72.0 F.


Dew Point Comfort Scale

dewpoints

Date, Time Temperature Dew Point
Fri Sep 21 00:08:04 2018 72.0 F. 68.0 F.
Fri Sep 21 01:08:55 2018 73.0 F. 67.0 F.
Fri Sep 21 13:17:31 2018 79.0 F. 73.0 F.
Fri Sep 21 14:09:00 2018
Fri Sep 21 15:08:06 2018 81.0 F. 70.0 F.
Fri Sep 21 16:08:05 2018 81.0 F. 71.1 F.
Fri Sep 21 17:08:05 2018 78.0 F. 69.1 F.
Fri Sep 21 18:08:05 2018 77.0 F. 69.1 F.
Fri Sep 21 19:08:09 2018 75.0 F. 66.9 F.
Fri Sep 21 20:08:05 2018 77.0 F. 69.1 F.
Fri Sep 21 21:08:05 2018 72.0 F. 60.1 F.
Fri Sep 21 22:08:05 2018 75.0 F. 66.9 F.
Fri Sep 21 23:08:05 2018 68.0 F. 57.0 F.
Sat Sep 22 00:08:05 2018 66.0 F. 55.0 F.
Sat Sep 22 01:08:05 2018 65.0 F. 55.0 F.
Sat Sep 22 02:08:04 2018 65.0 F. 55.0 F.
Sat Sep 22 03:08:04 2018 64.0 F. 55.0 F.
Sat Sep 22 04:08:04 2018 63.0 F. 55.0 F.
Sat Sep 22 05:08:46 2018
Sat Sep 22 06:08:05 2018 62.0 F. 54.0 F.
Sat Sep 22 07:08:05 2018 60.0 F. 55.9 F.
Sat Sep 22 08:08:05 2018 59.0 F. 57.0 F.
Sat Sep 22 09:08:05 2018 60.0 F. 55.9 F.
Sat Sep 22 10:08:04 2018 59.0 F. 57.0 F.
Sat Sep 22 11:08:04 2018 60.0 F. 57.9 F.
Sat Sep 22 12:08:05 2018 61.0 F. 59.0 F.
Sat Sep 22 13:08:05 2018 61.0 F. 59.0 F.
Sat Sep 22 14:08:04 2018 60.0 F. 59.0 F.
Sat Sep 22 15:08:05 2018 60.0 F. 59.0 F.
Sat Sep 22 16:08:05 2018 60.0 F. 59.0 F.
Sat Sep 22 17:08:05 2018 61.0 F. 59.0 F.
Sat Sep 22 18:08:05 2018 61.0 F. 59.0 F.
Sat Sep 22 19:08:05 2018 60.0 F. 59.0 F.
Sat Sep 22 20:08:05 2018 60.0 F. 59.0 F.
Sat Sep 22 21:08:05 2018 60.0 F. 59.0 F.
Sat Sep 22 22:08:05 2018 60.0 F. 57.9 F.
Sat Sep 22 23:08:05 2018 60.0 F. 57.9 F.
Sun Sep 23 00:08:06 2018 60.0 F. 57.9 F.
Sun Sep 23 01:08:05 2018 60.0 F. 57.9 F.
Sun Sep 23 02:08:05 2018 60.0 F. 57.9 F.
Sun Sep 23 03:08:05 2018 60.0 F. 59.0 F.
Sun Sep 23 04:08:05 2018 60.0 F. 57.9 F.
Sun Sep 23 05:08:05 2018 60.0 F. 57.9 F.
Sun Sep 23 06:08:05 2018 60.0 F. 57.9 F.
Sun Sep 23 07:08:05 2018 61.0 F. 59.0 F.
Sun Sep 23 08:08:05 2018 61.0 F. 59.0 F.
Sun Sep 23 09:08:05 2018 62.0 F. 60.1 F.
Sun Sep 23 10:08:05 2018 63.0 F. 60.1 F.
Sun Sep 23 11:08:04 2018 66.0 F. 61.0 F.
Sun Sep 23 12:08:40 2018
Sun Sep 23 13:09:00 2018
Sun Sep 23 14:09:00 2018
Sun Sep 23 15:09:00 2018
Sun Sep 23 16:08:37 2018
Sun Sep 23 17:08:15 2018 73.0 F. 64.9 F.
Sun Sep 23 18:09:00 2018
Sun Sep 23 19:08:51 2018
Sun Sep 23 20:09:00 2018
Sun Sep 23 21:08:15 2018 67.0 F. 64.9 F.
Sun Sep 23 22:08:15 2018 67.0 F. 64.9 F.
Sun Sep 23 23:08:15 2018 66.0 F. 64.9 F.
Mon Sep 24 00:08:15 2018 66.0 F. 64.9 F.
Mon Sep 24 01:08:15 2018 66.0 F. 64.9 F.
Mon Sep 24 02:08:14 2018 66.0 F. 64.9 F.
Mon Sep 24 03:08:15 2018 65.0 F. 64.9 F.
Mon Sep 24 04:08:16 2018 65.0 F. 64.9 F.
Mon Sep 24 05:08:15 2018 65.0 F. 64.9 F.
Mon Sep 24 06:08:14 2018 66.0 F. 64.9 F.
Mon Sep 24 07:08:15 2018 66.0 F. 66.0 F.
Mon Sep 24 08:08:15 2018 66.0 F. 66.0 F.
Mon Sep 24 09:08:15 2018 67.0 F. 66.9 F.
Mon Sep 24 10:08:15 2018 69.0 F. 68.0 F.
Mon Sep 24 11:08:14 2018 73.0 F. 70.0 F.
Mon Sep 24 12:08:14 2018 73.0 F. 71.1 F.
Mon Sep 24 13:08:15 2018 72.0 F. 70.0 F.
Mon Sep 24 14:09:00 2018
Mon Sep 24 15:09:00 2018
Mon Sep 24 16:08:15 2018 77.0 F. 71.1 F.
Mon Sep 24 17:08:15 2018 78.0 F. 72.0 F.
Mon Sep 24 18:08:15 2018 76.0 F. 72.0 F.
Mon Sep 24 19:08:15 2018 76.0 F. 72.0 F.
Mon Sep 24 20:08:15 2018 73.0 F. 72.0 F.
Mon Sep 24 21:08:16 2018 73.0 F. 72.0 F.
Mon Sep 24 22:08:15 2018 73.0 F. 72.0 F.
Mon Sep 24 23:08:14 2018 72.0 F. 72.0 F.
Tue Sep 25 00:08:18 2018 72.0 F. 71.1 F.
Tue Sep 25 01:08:15 2018 73.0 F. 72.0 F.